Time;durP1;ratioP1;P1;durP2;ratioP2;P2;SDS_P1;SDS_P2;PMS_P1;PMS_P2;Temp;Humidity;BMP_temperature;BMP_pressure;BME280_temperature;BME280_humidity;BME280_pressure;Samples;Min_cycle;Max_cycle;Signal;HPM_P1;HPM_P2
2022/11/26 00:01:47;;;;;;;23.60;3.90;;;;;;;30.97;29.88;101228.81;6255341;22;19999;-96
2022/11/26 00:04:12;;;;;;;24.77;4.20;;;;;;;30.73;30.27;101233.09;6253946;22;20262;-95
2022/11/26 00:06:40;;;;;;;18.58;3.63;;;;;;;29.81;31.32;101228.66;6251167;22;20431;-95
2022/11/26 00:09:13;;;;;;;17.98;4.55;;;;;;;30.78;30.33;101225.97;6251751;22;20149;-94
2022/11/26 00:11:39;;;;;;;19.98;3.88;;;;;;;31.15;29.98;101237.00;6252097;22;20041;-96
2022/11/26 00:14:13;;;;;;;26.08;4.40;;;;;;;30.05;31.02;101234.41;6251630;22;20000;-95
2022/11/26 00:16:39;;;;;;;28.35;4.38;;;;;;;30.15;30.77;101233.97;6250845;22;20334;-95
2022/11/26 00:19:04;;;;;;;25.75;4.35;;;;;;;30.31;30.72;101244.34;6250427;22;20095;-95
2022/11/26 00:21:33;;;;;;;28.02;4.32;;;;;;;30.71;30.54;101236.03;6251581;22;20448;-94
2022/11/26 00:24:01;;;;;;;30.17;4.13;;;;;;;30.20;30.39;101237.69;6252776;22;20000;-96
2022/11/26 00:26:27;;;;;;;31.70;4.90;;;;;;;30.07;30.92;101239.63;6251876;22;20023;-95
2022/11/26 00:28:59;;;;;;;24.58;4.45;;;;;;;34.16;26.94;101236.47;6252148;22;20000;-94
2022/11/26 00:31:26;;;;;;;24.80;4.47;;;;;;;33.82;26.83;101240.91;6251752;22;20004;-96
2022/11/26 00:33:52;;;;;;;24.58;4.10;;;;;;;31.52;29.21;101242.56;6250915;22;19999;-96
2022/11/26 00:36:28;;;;;;;21.23;3.70;;;;;;;31.90;28.99;101241.56;6250409;22;20012;-95
2022/11/26 00:39:06;;;;;;;18.38;3.33;;;;;;;31.44;29.17;101240.13;6251795;22;20000;-94
2022/11/26 00:41:37;;;;;;;26.67;3.58;;;;;;;32.36;28.48;101250.22;6252331;22;20004;-95
2022/11/26 00:44:03;;;;;;;18.30;4.07;;;;;;;32.09;28.60;101252.44;6253223;22;20004;-94
2022/11/26 00:46:29;;;;;;;17.15;3.70;;;;;;;30.34;29.90;101246.63;6251371;22;20016;-95
2022/11/26 00:48:55;;;;;;;28.58;5.10;;;;;;;30.76;30.18;101248.94;6252272;22;20376;-94
2022/11/26 00:51:27;;;;;;;29.90;4.60;;;;;;;32.31;27.81;101245.50;6251707;22;20004;-93
2022/11/26 00:53:55;;;;;;;24.27;4.28;;;;;;;32.45;28.40;101243.44;6251979;22;20004;-95
2022/11/26 00:56:21;;;;;;;25.70;4.43;;;;;;;31.37;29.25;101244.75;6252123;22;20018;-94
2022/11/26 00:58:48;;;;;;;25.45;5.20;;;;;;;31.63;29.31;101247.25;6253897;22;20000;-93
2022/11/26 01:01:22;;;;;;;22.52;4.28;;;;;;;32.73;28.04;101248.28;6252863;22;20372;-95
2022/11/26 01:03:48;;;;;;;22.95;4.63;;;;;;;32.25;28.38;101251.84;6254311;22;20008;-94
2022/11/26 01:06:21;;;;;;;25.88;4.70;;;;;;;32.08;28.90;101262.47;6253691;22;20027;-94
2022/11/26 01:08:46;;;;;;;31.55;5.28;;;;;;;31.99;28.70;101264.66;6254069;22;20007;-95
2022/11/26 01:11:15;;;;;;;30.08;5.28;;;;;;;32.48;28.07;101261.16;6254736;22;20411;-95
2022/11/26 01:13:45;;;;;;;22.50;4.30;;;;;;;31.80;28.97;101263.78;6254496;22;20437;-95
2022/11/26 01:16:20;;;;;;;30.35;4.50;;;;;;;32.15;28.74;101256.97;6253746;22;20003;-94
2022/11/26 01:18:48;;;;;;;26.77;4.90;;;;;;;32.49;28.05;101257.41;6254759;22;20012;-93
2022/11/26 01:21:13;;;;;;;27.30;5.03;;;;;;;32.17;28.30;101252.13;6253685;22;20011;-95
2022/11/26 01:23:39;;;;;;;28.23;5.03;;;;;;;31.87;28.55;101247.41;6254357;22;20000;-95
2022/11/26 01:26:05;;;;;;;32.38;4.32;;;;;;;31.03;29.48;101249.63;6253774;22;20107;-95
2022/11/26 01:28:31;;;;;;;21.52;4.53;;;;;;;31.80;28.61;101244.78;6254791;22;20205;-95
2022/11/26 01:30:56;;;;;;;25.90;4.63;;;;;;;31.60;28.99;101249.59;6253744;22;20131;-94
2022/11/26 01:33:22;;;;;;;26.83;4.47;;;;;;;32.03;28.42;101245.19;6252281;22;20014;-95
2022/11/26 01:35:47;;;;;;;23.52;4.40;;;;;;;32.15;28.53;101237.94;6252158;22;20022;-94
2022/11/26 01:38:14;;;;;;;27.85;3.53;;;;;;;32.93;27.59;101241.72;6252487;22;20004;-94
2022/11/26 01:41:17;;;;;;;26.75;4.72;;;;;;;32.84;27.74;101246.69;6252812;22;19999;-95
2022/11/26 01:43:42;;;;;;;29.20;4.28;;;;;;;31.85;28.57;101254.13;6253658;22;20087;-95
2022/11/26 01:46:19;;;;;;;17.50;4.40;;;;;;;31.52;29.21;101256.13;6252448;22;20045;-95
2022/11/26 01:48:47;;;;;;;29.48;4.47;;;;;;;31.33;29.49;101249.78;6257021;22;20008;-96
2022/11/26 01:51:17;;;;;;;19.65;4.18;;;;;;;31.22;29.70;101247.78;6260185;22;19996;-95
2022/11/26 01:53:49;;;;;;;32.80;4.30;;;;;;;30.98;29.92;101236.69;6254749;22;20050;-95
2022/11/26 01:56:26;;;;;;;24.05;3.90;;;;;;;31.63;29.31;101247.25;6254629;22;20004;-94
2022/11/26 01:59:20;;;;;;;28.70;5.05;;;;;;;31.65;29.18;101251.63;6255873;22;20014;-94
2022/11/26 02:01:48;;;;;;;23.65;3.85;;;;;;;31.99;28.74;101240.19;6254443;22;20035;-95
2022/11/26 02:04:20;;;;;;;27.05;4.25;;;;;;;31.90;29.05;101249.69;6260001;22;20068;-95
2022/11/26 02:06:48;;;;;;;27.42;4.18;;;;;;;33.02;28.12;101232.19;6254250;22;20008;-95
2022/11/26 02:09:14;;;;;;;21.92;3.03;;;;;;;30.47;30.70;101239.50;6255027;22;20008;-95
2022/11/26 02:11:40;;;;;;;22.98;4.07;;;;;;;31.63;29.25;101243.72;6257528;22;20065;-95
2022/11/26 02:14:13;;;;;;;37.30;4.32;;;;;;;32.64;28.42;101240.69;6253596;22;20330;-94
2022/11/26 02:16:41;;;;;;;27.60;5.45;;;;;;;32.17;28.77;101235.81;6252703;22;20449;-94
2022/11/26 02:19:35;;;;;;;20.52;3.45;;;;;;;32.24;28.74;101230.34;6252978;22;20071;-94
2022/11/26 02:22:25;;;;;;;22.30;3.95;;;;;;;32.12;28.70;101236.53;6254967;22;20464;-95
2022/11/26 02:25:13;;;;;;;32.45;3.85;;;;;;;30.58;30.06;101222.56;6255143;22;20012;-95
2022/11/26 02:28:17;;;;;;;21.65;3.90;;;;;;;30.84;29.93;101235.94;6253079;22;20007;-95
2022/11/26 02:32:39;;;;;;;24.50;3.90;;;;;;;31.62;29.26;101215.75;4890718;28;21476;-93
2022/11/26 02:35:08;;;;;;;27.08;4.13;;;;;;;31.91;29.04;101235.06;4973692;28;20063;-95
2022/11/26 02:37:40;;;;;;;13.50;2.35;;;;;;;31.73;29.08;101221.47;4947921;28;20066;-95
2022/11/26 02:40:08;;;;;;;42.83;4.18;;;;;;;31.99;29.00;101210.31;4940931;29;20067;-95
2022/11/26 02:42:35;;;;;;;29.63;4.15;;;;;;;31.38;29.59;101209.25;4954354;28;20051;-96
2022/11/26 02:45:05;;;;;;;29.73;4.63;;;;;;;32.15;28.82;101218.94;4961206;28;20027;-96
2022/11/26 02:47:33;;;;;;;11.57;2.72;;;;;;;31.57;29.36;101226.44;4946338;29;20153;-96
2022/11/26 02:50:05;;;;;;;17.33;2.72;;;;;;;31.69;29.31;101204.81;4945519;29;20056;-96
2022/11/26 02:52:32;;;;;;;25.02;5.00;;;;;;;30.57;30.01;101212.75;4959405;29;20118;-95
2022/11/26 02:55:00;;;;;;;32.50;5.10;;;;;;;30.28;30.83;101204.13;4961608;29;20036;-96
2022/11/26 02:57:31;;;;;;;23.65;3.28;;;;;;;30.72;30.52;101204.31;4976410;28;20030;-96
2022/11/26 02:59:57;;;;;;;20.65;4.68;;;;;;;30.87;29.91;101212.16;4975786;28;20028;-96
2022/11/26 03:02:39;;;;;;;31.52;4.13;;;;;;;31.79;29.14;101207.00;4958461;28;20055;-96
2022/11/26 03:05:07;;;;;;;28.95;4.22;;;;;;;31.36;29.66;101213.22;4959581;28;20039;-96
2022/11/26 03:07:34;;;;;;;27.00;3.80;;;;;;;32.36;28.90;101207.56;4957645;28;20094;-95
2022/11/26 03:10:01;;;;;;;20.55;4.32;;;;;;;31.53;29.19;101206.22;4957706;28;20086;-96
2022/11/26 03:12:28;;;;;;;24.88;4.25;;;;;;;30.97;30.10;101212.53;4957372;28;20027;-95
2022/11/26 03:14:54;;;;;;;25.23;3.97;;;;;;;30.61;30.40;101217.53;4945977;28;20028;-96
2022/11/26 03:17:20;;;;;;;23.17;3.85;;;;;;;29.28;31.70;101209.75;4940227;29;20024;-96
2022/11/26 03:19:46;;;;;;;25.52;3.63;;;;;;;30.60;30.45;101206.91;4941761;29;20058;-96
2022/11/26 03:22:13;;;;;;;18.55;3.78;;;;;;;30.65;30.27;101209.81;4941270;29;20024;-96
2022/11/26 03:24:39;;;;;;;15.00;2.83;;;;;;;28.38;32.65;101201.03;4958468;28;20059;-96
2022/11/26 03:27:05;;;;;;;21.35;3.30;;;;;;;29.00;32.17;101213.44;4962532;28;20571;-96
2022/11/26 03:29:31;;;;;;;19.73;3.38;;;;;;;29.21;31.75;101203.53;4932273;29;20028;-96
2022/11/26 03:31:57;;;;;;;20.13;3.88;;;;;;;29.26;32.04;101195.59;4940615;29;20133;-96
2022/11/26 03:34:23;;;;;;;15.73;2.67;;;;;;;29.12;31.36;101197.47;4940943;29;20126;-96
2022/11/26 03:36:49;;;;;;;16.55;3.17;;;;;;;29.59;31.26;101192.03;4953091;28;20051;-95
2022/11/26 03:39:15;;;;;;;21.63;3.13;;;;;;;29.67;31.03;101180.97;4957502;28;20115;-96
2022/11/26 03:41:43;;;;;;;25.67;4.07;;;;;;;29.40;31.03;101186.44;4951915;28;20495;-96
2022/11/26 03:44:10;;;;;;;18.02;2.78;;;;;;;29.59;31.01;101195.56;4957308;28;20051;-95
2022/11/26 03:46:36;;;;;;;28.70;4.97;;;;;;;29.44;31.10;101181.44;4942734;29;20078;-96
2022/11/26 03:49:02;;;;;;;18.95;3.80;;;;;;;29.20;31.12;101191.84;4943317;29;20114;-96
2022/11/26 03:51:28;;;;;;;24.75;3.20;;;;;;;29.23;31.17;101204.97;4943553;29;20078;-96
2022/11/26 03:53:53;;;;;;;19.73;3.95;;;;;;;29.94;30.38;101195.31;4942389;29;20036;-96
2022/11/26 03:56:19;;;;;;;23.88;4.10;;;;;;;29.83;30.65;101190.53;4957664;29;20032;-96
2022/11/26 03:58:44;;;;;;;25.95;2.97;;;;;;;29.82;31.02;101194.31;4941968;29;20039;-96
2022/11/26 04:01:11;;;;;;;17.27;3.40;;;;;;;29.48;31.69;101198.91;4957669;29;20090;-96
2022/11/26 04:03:37;;;;;;;39.05;4.28;;;;;;;29.98;31.33;101185.72;4941735;29;20066;-96
2022/11/26 04:06:03;;;;;;;16.95;3.08;;;;;;;30.31;31.23;101187.47;4940203;29;20214;-95
2022/11/26 04:08:29;;;;;;;17.02;3.33;;;;;;;30.26;30.72;101206.22;4940586;29;20709;-96
2022/11/26 04:10:54;;;;;;;28.55;5.75;;;;;;;30.07;31.59;101191.69;4956766;29;20032;-95
2022/11/26 04:13:20;;;;;;;27.23;3.60;;;;;;;30.37;30.88;101181.19;4936622;29;20056;-96
2022/11/26 04:15:47;;;;;;;21.25;2.88;;;;;;;30.48;31.18;101186.97;4939635;29;20035;-96
2022/11/26 04:18:13;;;;;;;25.15;4.03;;;;;;;30.76;30.46;101198.25;4939997;29;20024;-95
2022/11/26 04:20:38;;;;;;;25.55;3.53;;;;;;;31.47;29.79;101201.69;4940329;29;20032;-96
2022/11/26 04:23:04;;;;;;;31.77;5.32;;;;;;;31.90;29.71;101195.38;4942293;29;20064;-96
2022/11/26 04:25:30;;;;;;;19.67;3.97;;;;;;;31.36;30.23;101196.94;4957716;28;20028;-96
2022/11/26 04:27:55;;;;;;;30.35;3.65;;;;;;;31.42;30.21;101198.81;4942239;29;20065;-96
2022/11/26 04:30:21;;;;;;;30.10;3.60;;;;;;;31.68;29.83;101197.72;4957092;28;20064;-96
2022/11/26 04:32:46;;;;;;;35.08;4.32;;;;;;;31.89;29.94;101207.28;4940481;29;20036;-96
2022/11/26 04:35:12;;;;;;;26.70;4.05;;;;;;;33.36;28.12;101197.09;4942156;29;20024;-96
2022/11/26 04:37:38;;;;;;;21.95;3.50;;;;;;;33.24;28.33;101201.72;4936519;29;20028;-96
2022/11/26 04:40:04;;;;;;;30.60;4.60;;;;;;;32.16;29.64;101209.72;4940351;28;20111;-96
2022/11/26 04:42:30;;;;;;;37.35;4.88;;;;;;;31.42;30.55;101204.22;4922024;29;20044;-96
2022/11/26 04:44:55;;;;;;;31.67;3.88;;;;;;;31.31;30.33;101213.09;4922443;29;20483;-95
2022/11/26 04:47:21;;;;;;;32.10;4.15;;;;;;;32.46;29.33;101217.06;4925279;29;20072;-96
2022/11/26 04:49:46;;;;;;;32.40;4.00;;;;;;;31.95;29.57;101206.41;4941936;29;20042;-96
2022/11/26 04:52:12;;;;;;;30.70;4.32;;;;;;;31.33;30.28;101213.69;4940541;29;20035;-96
2022/11/26 04:54:37;;;;;;;25.63;4.18;;;;;;;32.27;29.50;101208.13;4941153;29;20446;-96
2022/11/26 04:57:03;;;;;;;30.33;4.10;;;;;;;31.79;30.12;101209.72;4957238;28;20032;-96
2022/11/26 04:59:28;;;;;;;27.10;3.22;;;;;;;31.63;30.06;101205.69;4940175;29;20538;-95
2022/11/26 05:01:54;;;;;;;25.55;3.70;;;;;;;31.16;30.25;101210.69;4940478;29;20053;-96
2022/11/26 05:04:19;;;;;;;31.88;5.47;;;;;;;31.23;30.44;101216.91;4938981;29;20038;-96
2022/11/26 05:06:45;;;;;;;25.15;3.42;;;;;;;31.40;30.58;101196.31;4938821;29;20035;-96
2022/11/26 05:09:12;;;;;;;35.13;3.97;;;;;;;31.00;31.04;101204.78;4939276;29;20034;-96
2022/11/26 05:11:37;;;;;;;38.13;3.47;;;;;;;30.84;30.99;101203.38;4940565;29;20027;-96
2022/11/26 05:14:03;;;;;;;28.35;4.35;;;;;;;31.28;30.38;101227.94;4939287;29;20035;-95
2022/11/26 05:16:29;;;;;;;34.38;3.95;;;;;;;30.38;31.41;101199.09;4939294;29;20031;-96
2022/11/26 05:18:54;;;;;;;30.48;3.72;;;;;;;31.17;30.75;101202.34;4939835;29;20020;-96
2022/11/26 05:21:20;;;;;;;19.90;3.10;;;;;;;31.93;29.77;101200.38;4940219;29;20027;-95
2022/11/26 05:23:45;;;;;;;27.45;4.00;;;;;;;30.77;30.73;101212.66;4941959;29;20035;-96
2022/11/26 05:26:11;;;;;;;30.42;3.40;;;;;;;30.73;30.95;101198.69;4955243;29;20019;-95
2022/11/26 05:28:36;;;;;;;23.60;3.42;;;;;;;31.65;30.31;101197.34;4947592;29;20036;-96
2022/11/26 05:31:03;;;;;;;23.73;3.53;;;;;;;33.04;28.65;101202.84;4941660;29;20064;-96
2022/11/26 05:33:29;;;;;;;22.92;2.78;;;;;;;31.45;29.54;101197.50;4934521;29;20088;-95
2022/11/26 05:35:55;;;;;;;18.70;3.55;;;;;;;31.29;29.72;101190.78;4929361;29;20031;-96
2022/11/26 05:38:21;;;;;;;14.15;2.88;;;;;;;31.34;29.71;101189.06;4957422;29;20094;-96
2022/11/26 05:40:47;;;;;;;27.33;4.30;;;;;;;32.21;28.72;101212.59;4941347;29;20028;-96
2022/11/26 05:43:12;;;;;;;25.40;3.85;;;;;;;31.88;28.82;101202.94;4941009;28;20020;-96
2022/11/26 05:45:38;;;;;;;17.85;2.75;;;;;;;32.22;28.66;101206.91;4940530;29;20023;-96
2022/11/26 05:48:04;;;;;;;18.08;2.92;;;;;;;31.44;29.18;101202.13;4940826;29;20118;-96
2022/11/26 05:50:31;;;;;;;18.00;3.03;;;;;;;32.19;28.48;101185.66;4939176;29;20020;-95
2022/11/26 05:52:57;;;;;;;19.35;3.05;;;;;;;30.82;29.91;101186.50;4941005;29;20031;-96
2022/11/26 05:55:22;;;;;;;13.07;2.67;;;;;;;30.90;29.86;101173.78;4940709;29;20028;-96
2022/11/26 05:57:48;;;;;;;22.70;3.00;;;;;;;30.91;29.92;101164.63;4941981;29;20059;-96
2022/11/26 06:00:14;;;;;;;22.50;3.40;;;;;;;31.45;29.11;101171.22;4955607;28;20138;-96
2022/11/26 06:02:40;;;;;;;15.15;2.42;;;;;;;30.81;29.80;101175.91;4940939;29;20083;-96
2022/11/26 06:05:06;;;;;;;21.48;3.38;;;;;;;30.44;30.20;101160.28;4952955;28;20035;-95
2022/11/26 06:07:31;;;;;;;26.45;3.50;;;;;;;29.06;31.58;101149.63;4954838;28;20032;-96
2022/11/26 06:09:57;;;;;;;22.30;3.85;;;;;;;29.92;31.47;101167.63;4938830;29;20507;-96
2022/11/26 06:12:22;;;;;;;30.75;3.55;;;;;;;29.71;31.20;101165.97;4939849;29;20031;-96
2022/11/26 06:14:48;;;;;;;24.38;3.75;;;;;;;29.91;30.89;101168.66;4939557;29;20166;-95
2022/11/26 06:17:14;;;;;;;22.55;2.70;;;;;;;29.73;30.80;101179.34;4941618;29;20497;-96
2022/11/26 06:19:39;;;;;;;28.10;3.90;;;;;;;29.63;32.13;101177.84;4938963;29;20036;-95
2022/11/26 06:22:05;;;;;;;16.23;2.47;;;;;;;30.99;29.91;101191.44;4947938;29;20046;-94
2022/11/26 06:24:31;;;;;;;33.90;3.83;;;;;;;29.92;30.96;101183.88;4926862;29;20031;-96
2022/11/26 06:26:56;;;;;;;30.60;3.10;;;;;;;30.75;30.84;101176.78;4945248;28;20021;-96
2022/11/26 06:29:22;;;;;;;39.10;4.40;;;;;;;30.62;31.17;101164.16;4938235;29;20035;-96
2022/11/26 06:31:47;;;;;;;43.88;5.05;;;;;;;31.67;29.89;101192.50;4939187;29;20040;-95
2022/11/26 06:34:14;;;;;;;26.17;3.80;;;;;;;30.40;30.46;101174.50;4938793;29;20039;-96
2022/11/26 06:36:40;;;;;;;29.17;3.33;;;;;;;30.53;30.13;101162.75;4938992;29;20490;-96
2022/11/26 06:39:05;;;;;;;27.40;3.92;;;;;;;26.92;34.68;101166.66;4939765;29;20031;-95
2022/11/26 06:41:31;;;;;;;26.83;3.97;;;;;;;26.44;36.23;101175.28;4937389;29;20538;-95
2022/11/26 06:43:58;;;;;;;21.50;3.28;;;;;;;25.89;37.24;101155.13;4937577;29;20198;-96
2022/11/26 06:46:24;;;;;;;25.80;4.07;;;;;;;26.24;36.56;101171.50;4938571;28;20390;-95
2022/11/26 06:48:49;;;;;;;25.48;2.83;;;;;;;26.17;36.23;101162.53;4937889;29;20026;-96
2022/11/26 06:51:16;;;;;;;25.33;3.25;;;;;;;26.80;35.41;101163.66;4939205;29;20023;-96
2022/11/26 06:53:42;;;;;;;18.40;3.58;;;;;;;26.49;36.22;101172.84;4938854;29;20559;-95
2022/11/26 06:56:10;;;;;;;15.07;2.75;;;;;;;27.83;34.20;101172.13;4937580;29;20031;-95
2022/11/26 06:58:36;;;;;;;10.80;1.77;;;;;;;27.44;34.49;101159.22;4954309;28;20127;-96
2022/11/26 07:01:10;;;;;;;16.60;2.88;;;;;;;27.34;34.37;101146.09;4957789;29;20525;-96
2022/11/26 07:03:36;;;;;;;15.80;2.42;;;;;;;26.82;35.09;101156.22;4937458;29;20027;-95
2022/11/26 07:06:01;;;;;;;18.98;3.08;;;;;;;27.19;34.55;101156.94;4937793;29;20082;-95
2022/11/26 07:08:27;;;;;;;34.47;4.22;;;;;;;25.30;37.35;101154.06;4936193;29;20379;-95
2022/11/26 07:10:52;;;;;;;34.25;4.95;;;;;;;25.22;38.03;101143.41;4936833;29;20031;-95
2022/11/26 07:13:18;;;;;;;22.33;2.88;;;;;;;25.96;37.18;101147.16;4953096;29;20028;-96
2022/11/26 07:15:43;;;;;;;35.22;3.80;;;;;;;26.13;36.63;101135.16;4937890;29;20031;-93
2022/11/26 07:18:09;;;;;;;31.95;4.07;;;;;;;26.09;36.94;101137.41;4958499;28;20032;-94
2022/11/26 07:20:35;;;;;;;29.65;3.20;;;;;;;27.20;36.19;101134.34;4942125;29;20055;-96
2022/11/26 07:23:03;;;;;;;19.92;2.90;;;;;;;27.38;35.49;101138.44;4941483;29;20380;-95
2022/11/26 07:25:29;;;;;;;21.33;2.55;;;;;;;26.55;36.08;101138.94;4943154;29;20059;-95
2022/11/26 07:27:54;;;;;;;41.38;4.85;;;;;;;27.53;35.72;101149.94;4942125;29;20482;-93
2022/11/26 07:30:20;;;;;;;34.92;3.47;;;;;;;28.11;34.34;101143.41;4940694;29;20024;-94
2022/11/26 07:32:46;;;;;;;26.55;3.97;;;;;;;27.88;35.09;101144.53;4941504;29;20078;-94
2022/11/26 07:35:11;;;;;;;28.58;4.45;;;;;;;26.55;36.70;101154.25;4938914;29;20028;-95
2022/11/26 07:37:37;;;;;;;23.08;3.60;;;;;;;26.54;36.47;101141.81;4939613;29;20034;-95
2022/11/26 07:40:04;;;;;;;19.25;2.95;;;;;;;26.63;36.43;101148.78;4939624;29;20078;-95
2022/11/26 07:42:31;;;;;;;21.30;3.85;;;;;;;26.66;36.66;101156.47;4939212;29;20107;-95
2022/11/26 07:44:57;;;;;;;26.65;3.42;;;;;;;26.85;35.24;101161.19;4939126;29;20167;-94
2022/11/26 07:47:22;;;;;;;16.25;2.78;;;;;;;25.79;37.35;101165.31;4940577;29;20082;-94
2022/11/26 07:49:48;;;;;;;33.35;4.03;;;;;;;26.40;36.71;101162.38;4957673;28;20036;-95
2022/11/26 07:52:13;;;;;;;20.95;2.75;;;;;;;26.56;36.43;101147.84;4942274;29;20098;-96
2022/11/26 07:54:39;;;;;;;21.77;2.85;;;;;;;26.31;36.54;101148.19;4939284;29;20038;-94
2022/11/26 07:57:04;;;;;;;34.75;3.40;;;;;;;25.85;37.42;101148.41;4938042;29;20043;-95
2022/11/26 07:59:29;;;;;;;20.73;2.30;;;;;;;26.11;36.86;101158.75;4943733;29;20055;-96
2022/11/26 08:01:55;;;;;;;19.17;4.18;;;;;;;26.59;36.09;101158.25;4942133;29;20773;-94
2022/11/26 08:04:21;;;;;;;20.60;3.28;;;;;;;26.53;36.10;101159.84;4942020;29;20031;-96
2022/11/26 08:06:46;;;;;;;22.08;3.78;;;;;;;25.92;36.42;101163.66;4940687;29;20035;-94
2022/11/26 08:09:11;;;;;;;21.60;2.92;;;;;;;26.95;35.78;101170.81;4939319;29;20030;-95
2022/11/26 08:11:37;;;;;;;20.67;2.92;;;;;;;26.05;36.90;101171.09;4941513;29;20482;-95
2022/11/26 08:14:08;;;;;;;23.48;4.28;;;;;;;26.96;36.38;101178.72;4956113;29;20023;-94
2022/11/26 08:16:33;;;;;;;25.85;3.83;;;;;;;26.71;35.91;101175.59;4942208;29;20032;-96
2022/11/26 08:19:02;;;;;;;18.85;2.58;;;;;;;26.61;36.54;101169.69;4941037;29;20039;-96
2022/11/26 08:21:28;;;;;;;16.60;2.88;;;;;;;27.21;35.59;101181.00;4943507;29;20376;-95
2022/11/26 08:23:54;;;;;;;21.40;3.70;;;;;;;27.14;35.97;101175.56;4940467;29;20087;-96
2022/11/26 08:26:20;;;;;;;20.95;3.95;;;;;;;27.15;35.85;101166.44;4940578;29;20027;-95
2022/11/26 08:28:46;;;;;;;22.52;3.65;;;;;;;27.24;35.62;101143.72;4939850;29;20059;-95
2022/11/26 08:31:15;;;;;;;29.67;4.78;;;;;;;27.15;37.04;101131.38;4939169;29;20059;-94
2022/11/26 08:33:41;;;;;;;32.47;4.07;;;;;;;27.19;36.12;101123.75;4954172;28;20111;-95
2022/11/26 08:36:08;;;;;;;19.73;3.53;;;;;;;28.03;35.52;101134.44;4939061;29;20466;-95
2022/11/26 08:38:33;;;;;;;24.45;3.92;;;;;;;27.73;34.85;101124.94;4939960;29;20036;-95
2022/11/26 08:41:03;;;;;;;14.63;3.03;;;;;;;27.36;35.78;101124.31;4938661;29;20031;-95
2022/11/26 08:43:29;;;;;;;19.67;2.95;;;;;;;26.91;36.42;101133.47;4939744;29;20044;-96
2022/11/26 08:45:58;;;;;;;16.55;2.80;;;;;;;27.28;36.66;101134.22;4939843;29;20072;-96
2022/11/26 08:48:25;;;;;;;25.05;4.50;;;;;;;27.03;36.96;101136.47;4937546;29;20075;-95
2022/11/26 08:51:04;;;;;;;23.42;3.75;;;;;;;28.31;35.72;101127.25;4919017;29;20024;-94
2022/11/26 08:53:31;;;;;;;21.75;2.72;;;;;;;27.75;36.40;101128.28;4935950;29;20028;-95
2022/11/26 08:56:06;;;;;;;34.88;4.60;;;;;;;29.79;33.85;101132.47;4937983;29;20024;-94
2022/11/26 08:58:37;;;;;;;13.45;2.33;;;;;;;31.02;32.98;101134.91;4937758;29;20027;-96
2022/11/26 09:01:31;;;;;;;25.88;4.40;;;;;;;31.93;31.21;101135.19;4939434;29;20024;-95
2022/11/26 09:03:58;;;;;;;20.58;3.53;;;;;;;32.82;30.79;101144.63;4939064;29;20024;-95
2022/11/26 09:06:27;;;;;;;23.02;3.40;;;;;;;33.42;30.04;101138.16;4943782;29;20028;-96
2022/11/26 09:09:11;;;;;;;29.95;3.83;;;;;;;32.06;30.88;101127.97;4945454;29;20031;-96
2022/11/26 09:11:42;;;;;;;23.77;4.22;;;;;;;32.72;30.45;101127.00;4942680;29;20035;-96
2022/11/26 09:14:09;;;;;;;21.60;3.50;;;;;;;32.37;30.58;101119.56;4942069;29;20027;-96
2022/11/26 09:16:35;;;;;;;25.55;3.50;;;;;;;31.44;31.63;101115.28;4943656;29;20272;-95
2022/11/26 09:19:02;;;;;;;20.13;4.20;;;;;;;32.59;30.65;101116.34;4936145;29;20123;-95
2022/11/26 09:21:28;;;;;;;28.23;3.83;;;;;;;32.91;30.26;101116.03;4954937;29;20482;-96
2022/11/26 09:23:53;;;;;;;27.10;4.82;;;;;;;30.83;32.33;101115.00;4943523;29;20032;-95
2022/11/26 09:26:20;;;;;;;28.92;4.43;;;;;;;32.93;30.36;101122.06;4939848;29;20070;-96
2022/11/26 09:28:49;;;;;;;31.98;4.38;;;;;;;32.38;30.90;101132.06;4937600;29;20044;-95
2022/11/26 09:31:16;;;;;;;32.28;4.53;;;;;;;30.72;32.99;101129.25;4944896;29;20035;-93
2022/11/26 09:33:42;;;;;;;35.47;4.63;;;;;;;32.04;31.22;101135.50;4953210;29;20115;-96
2022/11/26 09:36:14;;;;;;;29.38;3.38;;;;;;;29.72;34.19;101118.97;4941779;29;20032;-95
2022/11/26 09:38:40;;;;;;;21.88;3.72;;;;;;;31.50;32.61;101124.41;4943433;29;20036;-96
2022/11/26 09:41:30;;;;;;;31.02;3.95;;;;;;;30.66;33.57;101127.44;4939604;28;20047;-96
2022/11/26 09:44:21;;;;;;;22.23;3.72;;;;;;;30.97;32.93;101125.75;4930272;29;20028;-95
2022/11/26 09:46:52;;;;;;;27.23;3.70;;;;;;;31.72;32.29;101122.09;4943224;29;20032;-96
2022/11/26 09:49:18;;;;;;;31.20;7.35;;;;;;;32.68;31.04;101117.63;4939507;29;20035;-94
2022/11/26 09:51:49;;;;;;;29.63;3.67;;;;;;;31.62;32.64;101112.59;4943018;29;20035;-94
2022/11/26 09:54:21;;;;;;;32.17;4.97;;;;;;;31.83;32.50;101110.44;4941080;29;20465;-95
2022/11/26 09:56:52;;;;;;;30.35;4.97;;;;;;;32.73;31.92;101104.19;4946571;29;20022;-95
2022/11/26 09:59:19;;;;;;;35.15;4.05;;;;;;;32.27;31.36;101097.56;4949505;29;20063;-95
2022/11/26 10:01:54;;;;;;;21.48;3.28;;;;;;;32.42;31.29;101106.09;4959574;28;20024;-95
2022/11/26 10:04:30;;;;;;;24.80;3.28;;;;;;;30.42;33.34;101085.72;4950975;29;20062;-96
2022/11/26 10:18:35;;;;;;;32.60;4.00;;;;;;;31.43;32.94;101114.44;4970966;28;20039;-96
2022/11/26 10:21:22;;;;;;;27.25;4.43;;;;;;;32.69;30.83;101099.47;4959454;29;20031;-96
2022/11/26 10:23:56;;;;;;;25.55;4.97;;;;;;;32.98;30.82;101092.25;4966767;29;20038;-96
2022/11/26 10:26:31;;;;;;;26.85;3.92;;;;;;;33.66;30.18;101098.94;4993732;23;20023;-96
2022/11/26 10:29:18;;;;;;;30.60;4.45;;;;;;;35.12;28.22;101083.78;4935138;29;20032;-96
2022/11/26 10:31:46;;;;;;;33.63;4.32;;;;;;;32.92;30.67;101087.75;4953279;29;20039;-96
2022/11/26 10:34:24;;;;;;;26.48;3.63;;;;;;;34.12;29.54;101093.56;4954183;29;20028;-96
2022/11/26 10:36:50;;;;;;;29.52;3.20;;;;;;;32.74;30.73;101094.13;4965554;29;20023;-96
2022/11/26 10:39:23;;;;;;;26.75;3.83;;;;;;;35.07;28.06;101096.50;4963178;29;20031;-96
2022/11/26 10:42:12;;;;;;;23.83;3.55;;;;;;;33.09;29.35;101091.44;4945022;29;20016;-96
2022/11/26 10:44:39;;;;;;;18.27;4.22;;;;;;;33.06;29.76;101091.91;4954940;29;20028;-96
2022/11/26 10:47:23;;;;;;;21.50;3.38;;;;;;;36.94;26.33;101094.44;4955692;29;20031;-96
2022/11/26 10:49:50;;;;;;;32.13;3.95;;;;;;;34.85;28.39;101091.81;4969382;28;20123;-96
2022/11/26 10:52:25;;;;;;;21.05;3.03;;;;;;;35.55;27.61;101073.97;4965294;28;20099;-96
2022/11/26 10:55:29;;;;;;;29.60;6.45;;;;;;;33.87;29.58;101083.84;4975034;29;20031;-96
2022/11/26 10:58:13;;;;;;;22.35;4.88;;;;;;;33.01;30.09;101070.00;4973323;29;20245;-96
2022/11/26 11:00:53;;;;;;;22.98;3.53;;;;;;;35.87;27.40;101070.53;4968289;28;20039;-96
2022/11/26 11:03:40;;;;;;;19.45;3.28;;;;;;;35.27;27.99;101072.28;4985737;28;20040;-96
2022/11/26 11:06:18;;;;;;;22.13;4.15;;;;;;;38.82;24.24;101075.22;4979056;28;20039;-95
2022/11/26 11:09:38;;;;;;;20.30;3.70;;;;;;;35.22;27.67;101071.38;4992204;28;20030;-96
2022/11/26 11:12:14;;;;;;;19.40;3.15;;;;;;;36.56;26.65;101047.13;5084719;23;20126;-96
2022/11/26 11:14:41;;;;;;;24.23;3.80;;;;;;;35.14;28.04;101048.03;4988475;28;20042;-96
2022/11/26 11:17:26;;;;;;;21.80;3.22;;;;;;;36.80;26.30;101057.69;4984038;28;20018;-96
2022/11/26 11:19:52;;;;;;;22.85;3.15;;;;;;;36.11;26.75;101040.97;4993295;28;20010;-96
2022/11/26 11:22:21;;;;;;;21.52;3.42;;;;;;;36.92;26.16;101045.44;4992685;28;20028;-96
2022/11/26 11:24:47;;;;;;;18.55;3.50;;;;;;;35.70;27.69;101037.03;4990215;28;20037;-96
2022/11/26 11:27:44;;;;;;;19.77;2.85;;;;;;;34.84;27.84;101019.25;5022567;23;20047;-96
2022/11/26 11:30:43;;;;;;;24.65;3.85;;;;;;;34.75;28.68;101028.94;5002681;23;20054;-96
2022/11/26 11:33:24;;;;;;;15.32;2.75;;;;;;;34.68;27.94;101001.84;4989699;28;20039;-95
2022/11/26 11:36:08;;;;;;;24.50;3.20;;;;;;;36.04;27.27;101001.28;4967725;29;20027;-96
2022/11/26 11:38:53;;;;;;;19.73;2.92;;;;;;;35.02;28.40;100995.50;4969336;28;20039;-96
2022/11/26 11:41:37;;;;;;;22.08;2.85;;;;;;;32.83;30.70;101010.31;4975324;28;20061;-96